createdAt,value
2023-02-07T00:01:13.013Z,100.00
2023-02-07T00:03:39.810Z,100.00
2023-02-07T00:06:12.339Z,100.00
2023-02-07T00:08:39.550Z,100.00
2023-02-07T00:11:11.496Z,100.00
2023-02-07T00:13:38.867Z,100.00
2023-02-07T00:16:06.711Z,100.00
2023-02-07T00:18:34.297Z,100.00
2023-02-07T00:21:03.266Z,100.00
2023-02-07T00:23:30.349Z,100.00
2023-02-07T00:25:58.124Z,100.00
2023-02-07T00:28:25.065Z,100.00
2023-02-07T00:30:52.061Z,100.00
2023-02-07T00:33:18.599Z,100.00
2023-02-07T00:35:45.180Z,100.00
2023-02-07T00:38:11.724Z,100.00
2023-02-07T00:40:38.354Z,100.00
2023-02-07T00:43:04.930Z,100.00
2023-02-07T00:45:31.526Z,100.00
2023-02-07T00:47:58.094Z,100.00
2023-02-07T00:50:24.621Z,100.00
2023-02-07T00:52:51.289Z,100.00
2023-02-07T00:55:17.980Z,100.00
2023-02-07T00:57:44.536Z,100.00
2023-02-07T01:00:11.656Z,100.00
2023-02-07T01:02:38.169Z,100.00
2023-02-07T01:05:04.903Z,100.00
2023-02-07T01:07:31.506Z,100.00
2023-02-07T01:09:58.090Z,100.00
2023-02-07T01:12:25.029Z,100.00
2023-02-07T01:14:51.607Z,100.00
2023-02-07T01:17:18.144Z,100.00
2023-02-07T01:19:44.736Z,100.00
2023-02-07T01:22:11.334Z,100.00
2023-02-07T01:24:37.923Z,100.00
2023-02-07T01:27:04.558Z,100.00
2023-02-07T01:29:31.181Z,100.00
2023-02-07T01:31:57.787Z,100.00
2023-02-07T01:34:24.404Z,100.00
2023-02-07T01:36:50.969Z,100.00
2023-02-07T01:39:17.521Z,100.00
2023-02-07T01:41:44.071Z,100.00
2023-02-07T01:44:22.956Z,100.00
2023-02-07T01:46:51.670Z,100.00
2023-02-07T01:49:23.574Z,100.00
2023-02-07T01:51:56.572Z,100.00
2023-02-07T01:54:23.782Z,100.00
2023-02-07T01:56:59.046Z,100.00
2023-02-07T01:59:26.592Z,100.00
2023-02-07T02:01:53.897Z,100.00
2023-02-07T02:04:20.704Z,100.00
2023-02-07T02:06:47.562Z,100.00
2023-02-07T02:09:16.484Z,100.00
2023-02-07T02:11:48.933Z,100.00
2023-02-07T02:14:47.266Z,100.00
2023-02-07T02:17:25.137Z,100.00
2023-02-07T02:20:29.290Z,100.00
2023-02-07T02:23:03.835Z,100.00
2023-02-07T02:26:04.383Z,100.00
2023-02-07T02:28:52.356Z,100.00
2023-02-07T02:31:49.268Z,100.00
2023-02-07T02:34:43.990Z,100.00
2023-02-07T02:37:25.710Z,100.00
2023-02-07T02:40:04.362Z,100.00
2023-02-07T02:42:42.416Z,100.00
2023-02-07T02:45:18.543Z,100.00
2023-02-07T02:47:48.226Z,100.00
2023-02-07T02:50:28.412Z,100.00
2023-02-07T02:52:55.461Z,100.00
2023-02-07T02:56:06.884Z,100.00
2023-02-07T02:59:00.257Z,100.00
2023-02-07T03:01:59.172Z,100.00
2023-02-07T03:04:37.484Z,100.00
2023-02-07T03:07:44.077Z,100.00
2023-02-07T03:10:38.842Z,100.00
2023-02-07T03:13:29.226Z,100.00
2023-02-07T03:16:31.092Z,100.00
2023-02-07T03:19:13.474Z,100.00
2023-02-07T03:21:45.383Z,100.00
2023-02-07T03:24:23.647Z,100.00
2023-02-07T03:26:54.632Z,100.00
2023-02-07T03:29:23.279Z,100.00
2023-02-07T03:31:57.889Z,100.00
2023-02-07T03:34:43.579Z,100.00
2023-02-07T03:37:20.270Z,100.00
2023-02-07T03:39:48.081Z,100.00
2023-02-07T03:42:28.108Z,100.00
2023-02-07T03:44:57.121Z,100.00
2023-02-07T03:47:26.137Z,100.00
2023-02-07T03:49:52.732Z,100.00
2023-02-07T03:52:19.527Z,100.00
2023-02-07T03:54:46.115Z,100.00
2023-02-07T03:57:12.767Z,100.00
2023-02-07T03:59:39.445Z,100.00
2023-02-07T04:02:06.361Z,100.00
2023-02-07T04:04:33.114Z,100.00
2023-02-07T04:06:59.691Z,100.00
2023-02-07T04:09:26.313Z,100.00
2023-02-07T04:11:52.920Z,100.00
2023-02-07T04:14:22.727Z,100.00
2023-02-07T04:16:49.745Z,100.00
2023-02-07T04:19:17.005Z,100.00
2023-02-07T04:21:43.791Z,100.00
2023-02-07T04:24:10.386Z,100.00
2023-02-07T04:26:37.015Z,100.00
2023-02-07T04:29:03.633Z,100.00
2023-02-07T04:31:30.287Z,100.00
2023-02-07T04:33:56.816Z,100.00
2023-02-07T04:36:23.772Z,100.00
2023-02-07T04:38:50.400Z,100.00
2023-02-07T04:41:17.152Z,100.00
2023-02-07T04:43:43.732Z,100.00
2023-02-07T04:46:10.493Z,100.00
2023-02-07T04:48:37.833Z,100.00
2023-02-07T04:51:06.526Z,100.00
2023-02-07T04:53:33.938Z,100.00
2023-02-07T04:56:00.510Z,100.00
2023-02-07T04:58:27.093Z,100.00
2023-02-07T05:00:53.985Z,100.00
2023-02-07T05:03:21.229Z,100.00
2023-02-07T05:05:47.979Z,100.00
2023-02-07T05:08:14.551Z,100.00
2023-02-07T05:10:41.714Z,100.00
2023-02-07T05:13:08.501Z,100.00
2023-02-07T05:15:35.631Z,100.00
2023-02-07T05:18:02.445Z,100.00
2023-02-07T05:20:29.209Z,100.00
2023-02-07T05:22:55.846Z,100.00
2023-02-07T05:25:22.386Z,100.00
2023-02-07T05:27:49.750Z,100.00
2023-02-07T05:30:16.545Z,100.00
2023-02-07T05:33:01.836Z,100.00
2023-02-07T05:35:28.342Z,100.00
2023-02-07T05:37:54.851Z,100.00
2023-02-07T05:40:21.436Z,100.00
2023-02-07T05:42:47.996Z,100.00
2023-02-07T05:45:14.609Z,100.00
2023-02-07T05:47:41.166Z,100.00
2023-02-07T05:50:08.134Z,100.00
2023-02-07T05:52:35.780Z,100.00
2023-02-07T05:55:02.824Z,100.00
2023-02-07T05:57:29.354Z,100.00
2023-02-07T05:59:55.879Z,100.00
2023-02-07T06:02:22.523Z,100.00
2023-02-07T06:04:49.124Z,100.00
2023-02-07T06:07:15.828Z,100.00
2023-02-07T06:09:42.424Z,100.00
2023-02-07T06:12:09.040Z,100.00
2023-02-07T06:14:36.433Z,100.00
2023-02-07T06:17:03.096Z,100.00
2023-02-07T06:19:29.658Z,100.00
2023-02-07T06:21:56.256Z,100.00
2023-02-07T06:24:22.845Z,100.00
2023-02-07T06:26:49.430Z,100.00
2023-02-07T06:29:16.002Z,100.00
2023-02-07T06:31:42.850Z,100.00
2023-02-07T06:34:09.419Z,100.00
2023-02-07T06:36:36.060Z,100.00
2023-02-07T06:39:03.582Z,100.00
2023-02-07T06:41:30.178Z,100.00
2023-02-07T06:43:56.915Z,100.00
2023-02-07T06:46:23.562Z,100.00
2023-02-07T06:48:50.118Z,100.00
2023-02-07T06:51:16.636Z,100.00
2023-02-07T06:53:43.240Z,99.49
2023-02-07T06:56:09.801Z,100.00
2023-02-07T06:58:36.336Z,100.00
2023-02-07T07:01:03.927Z,98.20
2023-02-07T07:03:30.824Z,98.54
2023-02-07T07:05:58.503Z,97.97
2023-02-07T07:08:26.792Z,100.00
2023-02-07T07:10:54.052Z,98.87
2023-02-07T07:13:23.521Z,99.97
2023-02-07T07:15:50.258Z,100.00
2023-02-07T07:18:16.824Z,100.00
2023-02-07T07:20:43.386Z,100.00
2023-02-07T07:23:09.956Z,99.02
2023-02-07T07:25:36.721Z,98.48
2023-02-07T07:28:03.625Z,100.00
2023-02-07T07:30:31.383Z,98.95
2023-02-07T07:32:58.033Z,99.02
2023-02-07T07:35:24.669Z,97.19
2023-02-07T07:37:51.219Z,97.86
2023-02-07T07:40:17.897Z,96.88
2023-02-07T07:42:44.441Z,95.53
2023-02-07T07:45:11.186Z,95.76
2023-02-07T07:47:37.762Z,94.46
2023-02-07T07:50:04.723Z,95.52
2023-02-07T07:52:31.319Z,95.39
2023-02-07T07:54:57.849Z,94.96
2023-02-07T07:57:28.150Z,94.88
2023-02-07T07:59:55.519Z,93.90
2023-02-07T08:02:22.970Z,93.65
2023-02-07T08:04:49.619Z,92.24
2023-02-07T08:07:16.237Z,91.81
2023-02-07T08:09:43.029Z,90.64
2023-02-07T08:12:09.785Z,91.74
2023-02-07T08:14:36.366Z,92.13
2023-02-07T08:17:02.932Z,91.96
2023-02-07T08:19:29.478Z,91.84
2023-02-07T08:21:56.053Z,90.48
2023-02-07T08:24:22.716Z,92.79
2023-02-07T08:26:49.380Z,92.62
2023-02-07T08:29:15.966Z,90.19
2023-02-07T08:31:42.799Z,89.48
2023-02-07T08:34:11.963Z,89.18
2023-02-07T08:36:39.527Z,88.68
2023-02-07T08:39:06.772Z,88.46
2023-02-07T08:41:33.516Z,89.28
2023-02-07T08:44:00.126Z,88.42
2023-02-07T08:46:26.920Z,86.63
2023-02-07T08:48:53.568Z,89.31
2023-02-07T08:51:20.413Z,87.85
2023-02-07T08:53:46.910Z,87.28
2023-02-07T08:56:13.512Z,87.57
2023-02-07T08:58:41.081Z,82.10
2023-02-07T09:01:11.545Z,77.65
2023-02-07T09:03:38.820Z,76.06
2023-02-07T09:06:05.728Z,74.23
2023-02-07T09:08:32.464Z,72.68
2023-02-07T09:10:59.071Z,69.11
2023-02-07T09:13:25.699Z,68.54
2023-02-07T09:15:57.080Z,68.51
2023-02-07T09:18:25.706Z,69.49
2023-02-07T09:20:52.740Z,67.88
2023-02-07T09:23:19.481Z,68.45
2023-02-07T09:25:47.885Z,64.48
2023-02-07T09:28:14.557Z,65.75
2023-02-07T09:30:46.130Z,61.44
2023-02-07T09:33:14.349Z,55.97
2023-02-07T09:35:47.007Z,56.50
2023-02-07T09:38:17.246Z,62.98
2023-02-07T09:40:45.733Z,54.50
2023-02-07T09:43:38.113Z,56.71
2023-02-07T09:46:23.862Z,58.06
2023-02-07T09:49:06.700Z,55.61
2023-02-07T09:51:36.683Z,54.74
2023-02-07T09:54:22.634Z,54.75
2023-02-07T09:56:52.415Z,51.30
2023-02-07T09:59:27.139Z,52.64
2023-02-07T10:01:59.750Z,50.91
2023-02-07T10:04:36.806Z,53.68
2023-02-07T10:07:07.488Z,56.47
2023-02-07T10:09:39.727Z,53.38
2023-02-07T10:12:32.382Z,50.48
2023-02-07T10:15:10.119Z,52.10
2023-02-07T10:18:02.202Z,48.33
2023-02-07T10:20:37.457Z,49.17
2023-02-07T10:23:17.869Z,50.38
2023-02-07T10:26:09.497Z,47.64
2023-02-07T10:28:51.286Z,47.32
2023-02-07T10:31:19.350Z,49.18
2023-02-07T10:33:55.304Z,49.18
2023-02-07T10:36:24.000Z,48.92
2023-02-07T10:39:08.075Z,47.22
2023-02-07T10:41:44.114Z,47.34
2023-02-07T10:44:18.804Z,46.20
2023-02-07T10:46:50.555Z,45.82
2023-02-07T10:49:24.620Z,45.97
2023-02-07T10:51:55.032Z,44.44
2023-02-07T10:54:24.428Z,49.05
2023-02-07T10:57:02.250Z,45.84
2023-02-07T10:59:40.667Z,47.61
2023-02-07T11:02:32.227Z,47.61
2023-02-07T11:05:02.827Z,45.17
2023-02-07T11:07:36.759Z,45.21
2023-02-07T11:10:33.803Z,46.50
2023-02-07T11:13:01.591Z,46.54
2023-02-07T11:15:45.840Z,49.03
2023-02-07T11:18:29.334Z,47.31
2023-02-07T11:20:56.416Z,48.03
2023-02-07T11:23:23.943Z,47.96
2023-02-07T11:25:54.518Z,47.57
2023-02-07T11:28:30.703Z,48.85
2023-02-07T11:31:10.483Z,49.60
2023-02-07T11:33:37.421Z,50.00
2023-02-07T11:36:20.686Z,48.16
2023-02-07T11:38:54.058Z,48.28
2023-02-07T11:41:27.548Z,47.30
2023-02-07T11:44:18.194Z,49.76
2023-02-07T11:46:49.968Z,47.93
2023-02-07T11:49:29.234Z,48.25
2023-02-07T11:51:59.737Z,48.69
2023-02-07T11:54:28.099Z,47.72
2023-02-07T11:57:03.125Z,48.85
2023-02-07T11:59:29.733Z,48.79
2023-02-07T12:01:59.781Z,47.27
2023-02-07T12:04:34.574Z,46.58
2023-02-07T12:07:32.318Z,47.54
2023-02-07T12:10:06.049Z,48.67
2023-02-07T12:12:48.239Z,51.36
2023-02-07T12:15:28.959Z,46.41
2023-02-07T12:18:25.024Z,47.57
2023-02-07T12:21:01.036Z,46.58
2023-02-07T12:23:44.708Z,45.00
2023-02-07T12:26:14.292Z,46.70
2023-02-07T12:28:49.024Z,49.16
2023-02-07T12:31:26.192Z,47.32
2023-02-07T12:34:01.724Z,48.23
2023-02-07T12:36:43.448Z,46.73
2023-02-07T12:39:34.195Z,47.18
2023-02-07T12:42:26.318Z,48.12
2023-02-07T12:44:57.853Z,46.59
2023-02-07T12:47:27.374Z,46.42
2023-02-07T12:50:02.898Z,47.35
2023-02-07T12:52:51.343Z,46.09
2023-02-07T12:55:33.476Z,46.76
2023-02-07T12:58:38.577Z,47.40
2023-02-07T13:01:24.319Z,49.59
2023-02-07T13:04:06.169Z,48.80
2023-02-07T13:06:56.042Z,47.15
2023-02-07T13:09:52.193Z,49.19
2023-02-07T13:12:26.246Z,44.92
2023-02-07T13:15:23.792Z,47.90
2023-02-07T13:18:16.813Z,47.13
2023-02-07T13:21:01.713Z,47.23
2023-02-07T13:23:33.739Z,45.62
2023-02-07T13:26:13.781Z,44.95
2023-02-07T13:28:43.746Z,46.01
2023-02-07T13:31:15.867Z,46.56
2023-02-07T13:33:43.995Z,45.68
2023-02-07T13:36:13.283Z,45.48
2023-02-07T13:38:42.744Z,46.19
2023-02-07T13:41:48.156Z,45.96
2023-02-07T13:44:59.326Z,47.03
2023-02-07T13:47:37.047Z,45.79
2023-02-07T13:50:16.572Z,45.73
2023-02-07T13:52:51.871Z,46.70
2023-02-07T13:55:48.512Z,44.61
2023-02-07T13:58:52.027Z,45.50
2023-02-07T14:01:24.397Z,46.33
2023-02-07T14:04:00.091Z,46.02
2023-02-07T14:06:30.462Z,45.95
2023-02-07T14:09:14.743Z,45.61
2023-02-07T14:11:58.959Z,48.39
2023-02-07T14:14:30.827Z,47.58
2023-02-07T14:17:03.865Z,48.73
2023-02-07T14:19:51.585Z,46.84
2023-02-07T14:22:51.792Z,46.40
2023-02-07T14:25:42.941Z,44.78
2023-02-07T14:28:36.349Z,47.14
2023-02-07T14:31:31.578Z,48.12
2023-02-07T14:34:14.629Z,48.79
2023-02-07T14:36:42.042Z,47.34
2023-02-07T14:39:11.483Z,47.57
2023-02-07T14:41:41.424Z,47.88
2023-02-07T14:44:22.795Z,47.25
2023-02-07T14:46:53.136Z,47.56
2023-02-07T14:49:49.335Z,48.34
2023-02-07T14:52:26.134Z,48.00
2023-02-07T14:55:04.506Z,46.61
2023-02-07T14:57:43.801Z,46.45
2023-02-07T15:00:13.316Z,47.91
2023-02-07T15:02:41.078Z,47.77
2023-02-07T15:05:13.647Z,48.07
2023-02-07T15:07:40.715Z,49.14
2023-02-07T15:10:22.856Z,47.61
2023-02-07T15:12:52.822Z,48.55
2023-02-07T15:15:29.419Z,50.29
2023-02-07T15:18:01.438Z,47.73
2023-02-07T15:20:31.962Z,47.14
2023-02-07T15:23:02.100Z,47.44
2023-02-07T15:25:30.877Z,46.94
2023-02-07T15:28:06.492Z,46.53
2023-02-07T15:30:34.380Z,48.47
2023-02-07T15:33:00.988Z,48.32
2023-02-07T15:35:36.387Z,49.52
2023-02-07T15:38:25.415Z,50.18
2023-02-07T15:40:54.423Z,50.03
2023-02-07T15:43:28.415Z,52.23
2023-02-07T15:46:05.492Z,52.24
2023-02-07T15:48:33.043Z,51.41
2023-02-07T15:51:03.890Z,51.90
2023-02-07T15:53:31.466Z,53.59
2023-02-07T15:55:59.169Z,53.56
2023-02-07T15:58:35.727Z,53.25
2023-02-07T16:01:05.732Z,53.36
2023-02-07T16:03:43.190Z,56.60
2023-02-07T16:06:22.085Z,56.58
2023-02-07T16:08:50.948Z,56.09
2023-02-07T16:11:36.882Z,55.18
2023-02-07T16:14:10.731Z,59.08
2023-02-07T16:16:47.753Z,56.89
2023-02-07T16:19:14.222Z,60.11
2023-02-07T16:21:42.414Z,58.04
2023-02-07T16:24:13.607Z,57.29
2023-02-07T16:26:40.145Z,56.73
2023-02-07T16:29:08.284Z,58.36
2023-02-07T16:31:35.563Z,57.32
2023-02-07T16:34:02.186Z,61.12
2023-02-07T16:36:28.825Z,58.91
2023-02-07T16:38:55.378Z,59.98
2023-02-07T16:41:31.467Z,61.71
2023-02-07T16:44:05.097Z,59.58
2023-02-07T16:46:31.709Z,61.65
2023-02-07T16:48:58.291Z,60.43
2023-02-07T16:51:24.851Z,60.68
2023-02-07T16:53:51.499Z,61.72
2023-02-07T16:56:25.859Z,60.86
2023-02-07T16:58:52.509Z,62.02
2023-02-07T17:01:20.623Z,64.57
2023-02-07T17:03:47.579Z,63.24
2023-02-07T17:06:15.988Z,62.86
2023-02-07T17:08:42.560Z,64.53
2023-02-07T17:11:14.726Z,62.88
2023-02-07T17:13:42.796Z,64.40
2023-02-07T17:16:14.807Z,63.54
2023-02-07T17:18:41.817Z,62.84
2023-02-07T17:21:09.085Z,67.47
2023-02-07T17:23:36.073Z,68.39
2023-02-07T17:26:06.843Z,66.32
2023-02-07T17:28:33.459Z,65.82
2023-02-07T17:31:00.107Z,66.10
2023-02-07T17:33:26.733Z,67.54
2023-02-07T17:35:53.408Z,68.73
2023-02-07T17:38:19.974Z,69.31
2023-02-07T17:40:47.169Z,68.85
2023-02-07T17:43:13.760Z,69.12
2023-02-07T17:45:40.334Z,68.66
2023-02-07T17:48:06.892Z,66.54
2023-02-07T17:50:37.339Z,67.87
2023-02-07T17:53:04.377Z,67.78
2023-02-07T17:55:32.647Z,67.54
2023-02-07T17:58:00.384Z,67.21
2023-02-07T18:00:33.506Z,68.91
2023-02-07T18:03:00.441Z,69.90
2023-02-07T18:05:27.052Z,68.55
2023-02-07T18:07:53.905Z,70.57
2023-02-07T18:10:25.062Z,72.09
2023-02-07T18:12:51.747Z,71.56
2023-02-07T18:15:18.916Z,71.75
2023-02-07T18:17:49.875Z,72.85
2023-02-07T18:20:34.906Z,73.37
2023-02-07T18:23:01.814Z,72.68
2023-02-07T18:25:30.188Z,73.27
2023-02-07T18:27:58.282Z,73.96
2023-02-07T18:30:26.548Z,73.73
2023-02-07T18:32:53.328Z,73.08
2023-02-07T18:35:20.223Z,74.34
2023-02-07T18:37:47.214Z,74.35
2023-02-07T18:40:15.800Z,74.51
2023-02-07T18:42:42.584Z,74.49
2023-02-07T18:45:10.141Z,75.33
2023-02-07T18:47:36.739Z,75.63
2023-02-07T18:50:03.548Z,76.17
2023-02-07T18:52:30.165Z,76.37
2023-02-07T18:54:56.726Z,75.40
2023-02-07T18:57:23.336Z,76.29
2023-02-07T18:59:50.045Z,76.40
2023-02-07T19:02:17.164Z,76.08
2023-02-07T19:04:43.874Z,76.21
2023-02-07T19:07:10.513Z,77.72
2023-02-07T19:09:37.104Z,76.65
2023-02-07T19:12:03.856Z,78.39
2023-02-07T19:14:31.323Z,77.64
2023-02-07T19:16:58.898Z,77.60
2023-02-07T19:19:28.548Z,76.92
2023-02-07T19:21:56.105Z,79.21
2023-02-07T19:24:23.743Z,78.62
2023-02-07T19:26:53.720Z,79.12
2023-02-07T19:29:27.967Z,79.30
2023-02-07T19:32:01.349Z,79.75
2023-02-07T19:34:28.441Z,79.42
2023-02-07T19:36:55.666Z,79.56
2023-02-07T19:39:22.664Z,80.09
2023-02-07T19:41:49.377Z,79.49
2023-02-07T19:44:17.369Z,79.33
2023-02-07T19:46:44.318Z,79.07
2023-02-07T19:49:12.552Z,78.82
2023-02-07T19:51:39.290Z,80.11
2023-02-07T19:54:06.321Z,79.81
2023-02-07T19:56:33.835Z,79.53
2023-02-07T19:59:05.303Z,79.12
2023-02-07T20:01:33.577Z,79.00
2023-02-07T20:04:00.814Z,79.68
2023-02-07T20:06:31.269Z,79.95
2023-02-07T20:08:59.419Z,81.33
2023-02-07T20:11:26.402Z,80.36
2023-02-07T20:13:55.914Z,80.82
2023-02-07T20:16:24.928Z,80.48
2023-02-07T20:18:52.983Z,79.92
2023-02-07T20:21:25.373Z,79.83
2023-02-07T20:23:54.422Z,80.53
2023-02-07T20:26:30.530Z,80.85
2023-02-07T20:29:00.010Z,81.08
2023-02-07T20:31:26.706Z,81.14
2023-02-07T20:33:54.215Z,81.70
2023-02-07T20:36:21.818Z,82.00
2023-02-07T20:38:48.709Z,82.58
2023-02-07T20:41:29.051Z,81.15
2023-02-07T20:44:04.619Z,82.09
2023-02-07T20:46:33.496Z,82.39
2023-02-07T20:49:05.387Z,82.44
2023-02-07T20:51:32.516Z,82.71
2023-02-07T20:54:01.157Z,83.21
2023-02-07T20:56:28.425Z,83.06
2023-02-07T20:58:55.595Z,82.62
2023-02-07T21:01:24.961Z,81.74
2023-02-07T21:03:55.725Z,81.59
2023-02-07T21:06:24.097Z,81.27
2023-02-07T21:08:58.647Z,81.28
2023-02-07T21:11:26.218Z,81.24
2023-02-07T21:13:54.173Z,81.22
2023-02-07T21:16:21.133Z,80.43
2023-02-07T21:18:48.258Z,80.55
2023-02-07T21:21:15.487Z,80.75
2023-02-07T21:23:42.516Z,80.03
2023-02-07T21:26:12.481Z,80.15
2023-02-07T21:28:39.864Z,80.35
2023-02-07T21:31:28.091Z,79.69
2023-02-07T21:33:54.795Z,80.26
2023-02-07T21:36:39.689Z,78.95
2023-02-07T21:39:10.538Z,79.71
2023-02-07T21:41:39.528Z,79.60
2023-02-07T21:44:07.065Z,79.16
2023-02-07T21:46:39.466Z,80.07
2023-02-07T21:49:14.664Z,80.38
2023-02-07T21:51:42.597Z,79.86
2023-02-07T21:54:09.453Z,79.53
2023-02-07T21:56:39.332Z,79.21
2023-02-07T21:59:10.150Z,79.93
2023-02-07T22:01:36.752Z,79.31
2023-02-07T22:04:05.013Z,78.57
2023-02-07T22:06:33.437Z,78.07
2023-02-07T22:09:01.881Z,78.52
2023-02-07T22:11:32.621Z,77.43
2023-02-07T22:14:00.274Z,77.11
2023-02-07T22:16:28.413Z,76.16
2023-02-07T22:18:56.858Z,78.03
2023-02-07T22:21:26.285Z,76.18
2023-02-07T22:23:54.160Z,76.92
2023-02-07T22:26:20.785Z,76.56
2023-02-07T22:28:47.940Z,75.48
2023-02-07T22:31:21.029Z,76.46
2023-02-07T22:33:48.617Z,75.95
2023-02-07T22:36:19.504Z,76.66
2023-02-07T22:38:46.723Z,76.54
2023-02-07T22:41:13.330Z,75.30
2023-02-07T22:43:40.535Z,77.73
2023-02-07T22:46:12.082Z,76.91
2023-02-07T22:48:38.768Z,75.71
2023-02-07T22:51:11.529Z,75.75
2023-02-07T22:53:38.262Z,76.29
2023-02-07T22:56:05.233Z,76.37
2023-02-07T22:58:32.160Z,74.30
2023-02-07T23:00:58.705Z,74.99
2023-02-07T23:03:25.262Z,74.88
2023-02-07T23:05:51.886Z,78.60
2023-02-07T23:08:19.281Z,77.12
2023-02-07T23:10:45.891Z,75.49
2023-02-07T23:13:12.456Z,75.56
2023-02-07T23:15:44.972Z,74.01
2023-02-07T23:18:11.846Z,75.94
2023-02-07T23:20:38.592Z,75.76
2023-02-07T23:23:05.210Z,77.65
2023-02-07T23:25:31.810Z,74.95
2023-02-07T23:27:58.380Z,77.14
2023-02-07T23:30:24.940Z,74.80
2023-02-07T23:32:51.610Z,75.79
2023-02-07T23:35:18.251Z,75.56
2023-02-07T23:37:44.762Z,76.77
2023-02-07T23:40:11.507Z,74.97
2023-02-07T23:42:38.031Z,74.70
2023-02-07T23:45:04.781Z,74.69
2023-02-07T23:47:31.422Z,76.74
2023-02-07T23:49:57.989Z,75.96
2023-02-07T23:52:24.574Z,76.00
2023-02-07T23:54:51.235Z,75.72
2023-02-07T23:57:17.751Z,75.51
2023-02-07T23:59:44.254Z,76.58
